Stratford, WA (98853)

9:00 PM PDT on August 21, 2014 (GMT -0700)
Adrian | Change Station
CLOSE
Current Station
Personal Weather Station
Location: Soap Lake, WA
Elevation: 1201 ft
Nearby Weather Stations
Active Advisory: Flash Flood Warning

Elev 1201 ft 47.39 °N, 119.38 °W | Updated 1 second ago

Clear
Clear
70.2 °F
Feels Like 77 °F
N
1.1
Wind Variable Wind from North
Gusts 2.5 mph

Today
High -- | Low -- °F
--% Chance of Precip.
Yesterday
High -- | Low -- °F
Precip. -- in
6:01 AM 7:57 PM
Waning Crescent, 10% visible
Pressure 29.84 in
Visibility 10.0 miles
Clouds Clear
Heat Index 77 °F
Dew Point 50 °F
Humidity 48%
Rainfall 0.00 in
Snow Depth Not available.
UV 0 out of 12
Pollen 4.00 out of 12
Air Quality Not available.
Flu Activity Not available.
METAR KMWH 220352Z 09003KT 10SM CLR 22/08 A2985 RMK AO2 SLP104 T02220083

More Conditions Fewer Conditions

Pressure 29.84 in
Visibility 10.0 miles
Clouds Clear
Heat Index 77 °F
Dew Point 50 °F
Humidity 48%
Rainfall 0.00 in
Snow Depth Not available.
UV 0 out of 12
Pollen 4.00 out of 12
Air Quality Not available.
Flu Activity Not available.
METAR KMWH 220352Z 09003KT 10SM CLR 22/08 A2985 RMK AO2 SLP104 T02220083

More Conditions Fewer Conditions

10-Day Weather Forecast

Almanac

Astronomy

Aug. 21, 2014 Rise Set
Actual Time 6:01 AM PDT 7:57 PM PDT
Civil Twilight 5:28 AM PDT 8:30 PM PDT
Nautical Twilight 4:47 AM PDT 9:11 PM PDT
Astronomical Twilight 4:03 AM PDT 9:55 PM PDT
Moon 2:29 AM PDT (8/21) 5:35 PM PDT (8/21)
Length of Visible Light 15h 02m
Length of Day
13h 56m
Tomorrow will be 3m 10s shorter.
Waning Crescent, 10% of the Moon is Illuminated
Aug 22
Waning Crescent
Aug 25
New
Sep 2
First Quarter
Sep 8
Full
Sep 15
Last Quarter

Today's Extremes

State Highs State Lows

Community

WunderPhotos

Upload Photos

1,746,125 photos uploaded!

Nearby

Snow Depth

Station Depth Elevation
Trough 0 in 5300 ft
Upper Wheeler 0 in 4400 ft
Grouse Camp 0 in 5380 ft
Blewett Pass 0 in 4270 ft
Moses Mountain 1 in 5300 ft

Earthquake Activity

City Distance Mag. Time & Date
No recent earthquake activity has been reported nearby.
Minimum magnitude displayed is 2.5.

Coastal Water Temperatures

Place Temperature
No Stations Reporting

Nearby Weather Stations